Time;durP1;ratioP1;P1;durP2;ratioP2;P2;SDS_P1;SDS_P2;PMS_P1;PMS_P2;Temp;Humidity;BMP_temperature;BMP_pressure;BME280_temperature;BME280_humidity;BME280_pressure;Samples;Min_cycle;Max_cycle;Signal;HPM_P1;HPM_P2
2023/06/11 00:01:18;;;;;;;6.32;3.08;;;19.00;96.20;;;;;;5032392;28;20037;-80
2023/06/11 00:03:52;;;;;;;7.85;2.80;;;19.00;96.30;;;;;;5032347;28;20116;-80
2023/06/11 00:06:20;;;;;;;5.93;3.00;;;19.00;96.20;;;;;;5032351;28;20041;-80
2023/06/11 00:08:51;;;;;;;5.50;3.22;;;18.90;96.20;;;;;;5032521;28;20041;-80
2023/06/11 00:11:17;;;;;;;5.43;3.22;;;19.00;96.20;;;;;;5016309;28;20045;-80
2023/06/11 00:13:43;;;;;;;5.00;3.05;;;19.00;96.20;;;;;;5036612;28;20520;-81
2023/06/11 00:16:08;;;;;;;6.30;3.25;;;19.00;96.10;;;;;;5036051;28;20072;-81
2023/06/11 00:18:35;;;;;;;8.45;3.25;;;19.00;96.10;;;;;;5019713;28;20048;-80
2023/06/11 00:21:02;;;;;;;6.05;3.33;;;19.00;96.10;;;;;;5019856;28;20067;-81
2023/06/11 00:23:28;;;;;;;7.80;3.50;;;19.00;96.00;;;;;;5036077;28;20044;-80
2023/06/11 00:25:54;;;;;;;5.30;3.00;;;19.00;96.00;;;;;;5018957;28;20386;-80
2023/06/11 00:28:20;;;;;;;7.47;4.07;;;19.00;95.90;;;;;;5035751;28;20344;-81
2023/06/11 00:30:45;;;;;;;7.10;3.47;;;18.90;95.90;;;;;;5036001;28;20037;-80
2023/06/11 00:33:11;;;;;;;6.32;3.70;;;19.00;95.80;;;;;;5019532;28;20098;-81
2023/06/11 00:35:37;;;;;;;6.63;3.30;;;19.00;95.80;;;;;;5019673;28;20036;-81
2023/06/11 00:38:03;;;;;;;5.57;3.58;;;18.90;95.70;;;;;;5036015;28;20498;-81
2023/06/11 00:40:30;;;;;;;8.85;3.17;;;19.00;95.70;;;;;;5018904;28;20123;-81
2023/06/11 00:42:56;;;;;;;9.45;3.58;;;19.00;95.70;;;;;;5035602;28;20037;-81
2023/06/11 00:45:24;;;;;;;6.45;3.65;;;18.90;95.60;;;;;;5035578;28;20102;-81
2023/06/11 00:47:49;;;;;;;5.75;3.50;;;18.90;95.60;;;;;;5035980;28;20076;-81
2023/06/11 00:50:15;;;;;;;9.20;3.60;;;18.90;95.80;;;;;;5035936;28;20517;-80
2023/06/11 00:52:42;;;;;;;9.23;3.70;;;18.90;95.50;;;;;;5035786;28;20045;-81
2023/06/11 00:55:08;;;;;;;7.03;3.70;;;18.90;95.40;;;;;;5018574;28;20045;-80
2023/06/11 00:57:35;;;;;;;7.70;4.03;;;18.90;95.40;;;;;;5035374;28;20044;-81
2023/06/11 01:00:03;;;;;;;6.88;3.83;;;18.90;95.30;;;;;;5035248;28;20048;-81
2023/06/11 01:02:36;;;;;;;7.55;4.00;;;18.80;95.20;;;;;;5035326;28;20044;-81
2023/06/11 01:05:04;;;;;;;8.10;4.20;;;18.90;95.20;;;;;;5018584;28;20045;-81
2023/06/11 01:07:35;;;;;;;5.85;3.20;;;18.90;95.10;;;;;;5018562;28;20041;-80
2023/06/11 01:10:03;;;;;;;7.10;3.92;;;18.90;95.10;;;;;;5035211;28;20037;-81
2023/06/11 01:12:28;;;;;;;5.50;3.55;;;18.80;95.00;;;;;;5018633;28;20128;-81
2023/06/11 01:14:54;;;;;;;5.10;3.42;;;18.90;95.10;;;;;;5018848;28;20469;-80
2023/06/11 01:17:24;;;;;;;7.03;4.07;;;18.80;95.00;;;;;;5018414;28;20131;-80
2023/06/11 01:20:19;;;;;;;6.65;3.75;;;18.90;95.00;;;;;;5018624;28;20184;-81
2023/06/11 01:23:23;;;;;;;5.82;3.38;;;18.80;95.30;;;;;;5018121;28;20126;-81
2023/06/11 01:26:16;;;;;;;6.40;3.60;;;18.80;95.20;;;;;;5018256;28;20049;-81
2023/06/11 01:28:45;;;;;;;7.60;3.17;;;18.80;95.30;;;;;;5034990;28;20055;-81
2023/06/11 01:31:14;;;;;;;6.70;3.80;;;18.80;95.00;;;;;;5034924;28;20037;-81
2023/06/11 01:33:44;;;;;;;5.55;3.53;;;18.70;94.90;;;;;;5018236;28;20136;-81
2023/06/11 01:36:14;;;;;;;5.30;3.45;;;18.70;94.90;;;;;;5034422;28;20049;-80
2023/06/11 01:38:44;;;;;;;7.78;3.63;;;18.70;94.90;;;;;;5018385;28;20135;-81
2023/06/11 01:41:14;;;;;;;5.93;3.60;;;18.70;94.90;;;;;;5034486;28;20413;-81
2023/06/11 01:43:40;;;;;;;6.38;3.95;;;18.70;95.00;;;;;;5034823;28;20096;-81
2023/06/11 01:46:06;;;;;;;6.05;3.65;;;18.60;94.90;;;;;;5034572;28;20037;-81
2023/06/11 01:48:32;;;;;;;5.53;3.42;;;18.50;94.90;;;;;;5034626;28;20494;-81
2023/06/11 01:50:58;;;;;;;7.10;3.92;;;18.60;95.00;;;;;;5018051;28;20041;-81
2023/06/11 01:53:24;;;;;;;8.95;3.92;;;18.60;95.00;;;;;;5034298;28;20111;-80
2023/06/11 01:55:50;;;;;;;8.23;4.00;;;18.60;95.10;;;;;;5034275;28;20454;-81
2023/06/11 01:58:18;;;;;;;8.80;4.30;;;18.60;95.10;;;;;;5034193;28;20766;-81
2023/06/11 02:00:44;;;;;;;6.28;3.33;;;18.50;95.10;;;;;;5017875;28;20099;-81
2023/06/11 02:03:09;;;;;;;8.15;4.00;;;18.50;95.10;;;;;;5034594;28;20049;-81
2023/06/11 02:05:35;;;;;;;7.25;3.78;;;18.50;95.10;;;;;;5017834;28;20509;-80
2023/06/11 02:08:01;;;;;;;5.47;3.70;;;18.50;95.10;;;;;;5017457;28;20036;-81
2023/06/11 02:10:27;;;;;;;6.72;4.20;;;18.50;95.10;;;;;;5034336;28;20135;-81
2023/06/11 02:12:52;;;;;;;5.90;3.72;;;18.50;95.10;;;;;;5017658;28;20455;-81
2023/06/11 02:15:19;;;;;;;6.90;4.13;;;18.50;95.10;;;;;;5033815;28;20044;-80
2023/06/11 02:17:44;;;;;;;5.72;3.60;;;18.50;95.20;;;;;;5034147;28;20037;-81
2023/06/11 02:20:11;;;;;;;7.15;3.88;;;18.40;95.20;;;;;;5017273;28;20456;-81
2023/06/11 02:22:37;;;;;;;9.60;4.35;;;18.40;95.20;;;;;;5033765;28;20041;-80
2023/06/11 02:25:03;;;;;;;6.07;4.20;;;18.40;95.20;;;;;;5017049;28;20052;-81
2023/06/11 02:27:29;;;;;;;7.82;4.07;;;18.30;95.30;;;;;;5017331;28;20044;-81
2023/06/11 02:29:56;;;;;;;5.47;3.78;;;18.30;95.30;;;;;;5033574;28;20051;-81
2023/06/11 02:32:22;;;;;;;7.55;4.22;;;18.30;95.30;;;;;;5017199;28;20051;-81
2023/06/11 02:34:47;;;;;;;6.25;3.97;;;18.30;95.30;;;;;;5034022;28;20090;-80
2023/06/11 02:37:13;;;;;;;6.88;4.40;;;18.30;95.30;;;;;;5017214;28;20041;-81
2023/06/11 02:39:38;;;;;;;11.10;4.13;;;18.20;95.40;;;;;;5017215;28;20044;-81
2023/06/11 02:42:05;;;;;;;8.13;4.30;;;18.20;95.40;;;;;;5033572;28;20407;-81
2023/06/11 02:44:31;;;;;;;7.97;4.65;;;18.20;95.40;;;;;;5017129;28;20041;-81
2023/06/11 02:46:56;;;;;;;8.52;4.45;;;18.20;95.40;;;;;;5033294;28;20041;-81
2023/06/11 02:49:22;;;;;;;6.70;4.30;;;18.20;95.40;;;;;;5033232;28;20091;-80
2023/06/11 02:51:48;;;;;;;6.45;4.07;;;18.20;95.40;;;;;;5033282;28;20036;-80
2023/06/11 02:54:14;;;;;;;7.35;4.15;;;18.20;95.50;;;;;;5033399;28;20605;-80
2023/06/11 02:56:40;;;;;;;7.22;4.40;;;18.20;95.50;;;;;;5033438;28;20468;-80
2023/06/11 02:59:06;;;;;;;6.90;4.15;;;18.20;95.60;;;;;;5033230;28;20052;-81
2023/06/11 03:01:31;;;;;;;6.82;4.45;;;18.10;95.60;;;;;;5033202;28;20044;-81
2023/06/11 03:03:57;;;;;;;8.52;3.85;;;18.10;95.60;;;;;;5033083;28;20491;-81
2023/06/11 03:06:23;;;;;;;6.40;3.95;;;18.10;95.60;;;;;;5016603;28;20047;-81
2023/06/11 03:08:48;;;;;;;7.97;4.10;;;18.10;95.70;;;;;;5016836;28;20040;-81
2023/06/11 03:11:15;;;;;;;7.82;4.43;;;18.10;95.70;;;;;;5033324;28;20153;-80
2023/06/11 03:13:41;;;;;;;7.47;4.30;;;18.00;95.70;;;;;;5033229;28;20132;-81
2023/06/11 03:16:06;;;;;;;7.20;4.20;;;18.00;95.80;;;;;;5032885;28;20123;-80
2023/06/11 03:18:32;;;;;;;8.02;4.50;;;18.00;95.80;;;;;;5016460;28;20041;-80
2023/06/11 03:20:57;;;;;;;6.82;4.43;;;18.00;95.80;;;;;;5016198;28;20037;-80
2023/06/11 03:23:23;;;;;;;7.53;4.32;;;18.00;95.90;;;;;;5016342;28;20037;-80
2023/06/11 03:25:49;;;;;;;6.82;4.30;;;17.90;95.90;;;;;;5032883;28;20045;-80
2023/06/11 03:28:15;;;;;;;8.88;4.25;;;18.00;96.00;;;;;;5032619;28;20051;-81
2023/06/11 03:30:41;;;;;;;6.88;4.03;;;17.90;96.00;;;;;;5033005;28;20168;-80
2023/06/11 03:33:07;;;;;;;6.70;4.43;;;17.90;96.00;;;;;;5032929;28;20510;-80
2023/06/11 03:35:33;;;;;;;7.45;4.57;;;17.90;96.10;;;;;;5032511;28;20045;-81
2023/06/11 03:37:59;;;;;;;9.93;4.57;;;17.90;96.10;;;;;;5032580;28;20033;-80
2023/06/11 03:40:24;;;;;;;7.15;4.32;;;17.90;96.10;;;;;;5016226;28;20116;-80
2023/06/11 03:42:50;;;;;;;7.93;4.75;;;17.90;96.20;;;;;;5032654;28;20047;-80
2023/06/11 03:45:15;;;;;;;7.90;4.53;;;17.80;96.20;;;;;;5016044;28;20580;-81
2023/06/11 03:47:41;;;;;;;6.90;4.38;;;17.70;96.20;;;;;;5022379;28;20132;-81
2023/06/11 03:50:07;;;;;;;8.82;4.70;;;17.90;96.30;;;;;;5022529;28;20043;-80
2023/06/11 03:52:33;;;;;;;7.65;4.60;;;17.80;96.30;;;;;;5038980;28;20041;-80
2023/06/11 03:54:59;;;;;;;6.97;4.50;;;17.80;96.30;;;;;;5039081;28;20045;-80
2023/06/11 03:57:24;;;;;;;9.05;4.65;;;17.80;96.40;;;;;;5057026;28;20040;-81
2023/06/11 03:59:50;;;;;;;9.88;4.72;;;17.70;96.50;;;;;;5039280;28;20095;-80
2023/06/11 04:02:15;;;;;;;6.85;4.57;;;17.80;96.50;;;;;;5022475;28;20500;-80
2023/06/11 04:04:41;;;;;;;7.78;4.07;;;17.80;96.60;;;;;;5038970;28;20043;-80
2023/06/11 04:07:07;;;;;;;7.60;4.65;;;17.80;96.60;;;;;;5038949;28;20250;-81
2023/06/11 04:09:32;;;;;;;7.38;4.60;;;17.80;96.70;;;;;;5022481;28;20044;-80
2023/06/11 04:11:58;;;;;;;8.80;4.57;;;17.90;96.70;;;;;;5039322;28;20041;-80
2023/06/11 04:14:23;;;;;;;7.60;4.65;;;17.90;96.70;;;;;;5022304;28;20431;-80
2023/06/11 04:16:49;;;;;;;7.43;4.65;;;17.80;97.00;;;;;;5022427;28;20242;-80
2023/06/11 04:19:15;;;;;;;7.03;4.15;;;17.90;96.70;;;;;;5038925;28;20043;-80
2023/06/11 04:21:41;;;;;;;7.65;4.25;;;17.90;96.70;;;;;;5022448;28;20475;-80
2023/06/11 04:24:07;;;;;;;8.15;4.85;;;17.90;96.80;;;;;;5038746;28;20049;-81
2023/06/11 04:26:32;;;;;;;7.07;4.75;;;17.90;96.90;;;;;;5039037;28;20483;-80
2023/06/11 04:28:59;;;;;;;7.80;4.68;;;17.90;96.80;;;;;;5022243;28;20518;-80
2023/06/11 04:31:26;;;;;;;7.70;4.45;;;17.90;96.90;;;;;;5022396;28;20529;-80
2023/06/11 04:33:55;;;;;;;8.35;4.68;;;17.90;97.00;;;;;;5038817;28;20037;-80
2023/06/11 04:36:24;;;;;;;9.38;5.00;;;18.00;97.10;;;;;;5022348;28;20142;-80
2023/06/11 04:38:51;;;;;;;8.07;4.80;;;18.00;97.10;;;;;;5022068;28;20532;-80
2023/06/11 04:41:17;;;;;;;8.63;4.82;;;18.00;97.20;;;;;;5038408;28;20052;-80
2023/06/11 04:43:45;;;;;;;11.40;4.88;;;18.00;97.20;;;;;;5022550;28;20037;-80
2023/06/11 04:46:11;;;;;;;7.97;4.63;;;18.00;97.30;;;;;;5022180;28;20041;-80
2023/06/11 04:48:37;;;;;;;9.75;5.05;;;18.00;97.30;;;;;;5038354;28;20040;-80
2023/06/11 04:51:04;;;;;;;7.80;4.10;;;18.10;97.40;;;;;;5022140;28;20342;-80
2023/06/11 04:53:31;;;;;;;9.27;5.05;;;18.10;97.40;;;;;;5021988;28;20123;-80
2023/06/11 04:56:02;;;;;;;8.13;5.10;;;18.00;97.40;;;;;;5038376;28;20410;-81
2023/06/11 04:58:30;;;;;;;7.90;5.07;;;18.10;97.50;;;;;;5018564;28;20501;-80
2023/06/11 05:00:56;;;;;;;8.82;4.88;;;18.10;97.50;;;;;;5018829;28;20122;-80
2023/06/11 05:03:24;;;;;;;7.63;4.60;;;18.20;97.60;;;;;;5018835;28;20029;-80
2023/06/11 05:05:51;;;;;;;8.63;5.38;;;18.10;97.60;;;;;;5035297;28;20235;-80
2023/06/11 05:08:25;;;;;;;9.57;5.43;;;18.20;97.70;;;;;;5018717;28;20052;-80
2023/06/11 05:10:57;;;;;;;10.07;5.53;;;18.10;97.80;;;;;;5035221;28;20048;-80
2023/06/11 05:13:26;;;;;;;9.13;4.80;;;18.20;97.80;;;;;;5035064;28;20032;-80
2023/06/11 05:15:56;;;;;;;8.05;5.05;;;18.20;97.80;;;;;;5018607;28;20383;-80
2023/06/11 05:18:25;;;;;;;8.35;5.20;;;18.20;97.80;;;;;;5018449;28;20490;-80
2023/06/11 05:20:51;;;;;;;9.13;5.20;;;18.20;97.90;;;;;;5035130;28;20049;-80
2023/06/11 05:23:18;;;;;;;9.80;5.07;;;18.30;97.90;;;;;;5034851;28;20490;-80
2023/06/11 05:25:47;;;;;;;8.73;5.18;;;18.30;97.90;;;;;;5034895;28;20360;-80
2023/06/11 05:28:14;;;;;;;7.72;5.05;;;18.30;98.00;;;;;;5034873;28;20084;-81
2023/06/11 05:30:45;;;;;;;8.05;4.88;;;18.40;98.00;;;;;;5034841;28;20044;-81
2023/06/11 05:33:11;;;;;;;10.25;4.97;;;18.30;98.10;;;;;;5018212;28;20398;-81
2023/06/11 05:35:38;;;;;;;7.88;4.78;;;18.40;98.10;;;;;;5018444;28;20086;-80
2023/06/11 05:38:06;;;;;;;9.05;5.35;;;18.40;98.10;;;;;;5034817;28;20051;-81
2023/06/11 05:40:32;;;;;;;10.90;5.82;;;18.40;98.20;;;;;;5034286;28;20041;-80
2023/06/11 05:42:57;;;;;;;8.13;4.40;;;18.50;98.20;;;;;;5018057;28;20037;-80
2023/06/11 05:45:25;;;;;;;7.78;4.35;;;18.50;98.30;;;;;;5034699;28;20110;-80
2023/06/11 05:47:51;;;;;;;8.02;4.97;;;18.50;98.30;;;;;;5034603;28;20494;-81
2023/06/11 05:50:16;;;;;;;11.18;5.05;;;18.60;98.30;;;;;;5018270;28;20044;-80
2023/06/11 05:52:42;;;;;;;10.40;4.95;;;18.60;98.30;;;;;;5034439;28;20509;-80
2023/06/11 05:55:08;;;;;;;8.73;5.07;;;18.70;98.30;;;;;;5018087;28;20410;-80
2023/06/11 05:57:33;;;;;;;10.73;5.88;;;18.70;98.30;;;;;;5018089;28;20067;-80
2023/06/11 05:59:59;;;;;;;9.88;5.13;;;18.70;98.30;;;;;;5034241;28;20505;-80
2023/06/11 06:02:24;;;;;;;7.88;4.80;;;18.70;98.30;;;;;;5017702;28;20055;-80
2023/06/11 06:04:51;;;;;;;8.60;5.40;;;18.70;98.30;;;;;;5034156;28;20060;-80
2023/06/11 06:07:17;;;;;;;9.07;4.97;;;18.80;98.30;;;;;;5034104;28;20509;-80
2023/06/11 06:09:42;;;;;;;8.23;4.97;;;18.80;98.30;;;;;;5017050;28;20044;-80
2023/06/11 06:12:08;;;;;;;6.30;4.68;;;18.80;98.40;;;;;;5034267;28;20033;-80
2023/06/11 06:14:35;;;;;;;9.50;5.40;;;18.90;98.40;;;;;;5034121;28;20588;-80
2023/06/11 06:17:00;;;;;;;9.20;5.05;;;18.90;98.30;;;;;;5017414;28;20076;-80
2023/06/11 06:19:26;;;;;;;9.35;5.22;;;19.00;98.30;;;;;;5017262;28;20122;-80
2023/06/11 06:21:54;;;;;;;11.63;5.05;;;19.00;98.20;;;;;;5033757;28;20087;-80
2023/06/11 06:24:20;;;;;;;7.80;4.20;;;19.10;98.20;;;;;;5017110;28;20056;-80
2023/06/11 06:26:47;;;;;;;7.78;5.30;;;19.10;98.10;;;;;;5033670;28;20041;-80
2023/06/11 06:29:13;;;;;;;9.35;5.03;;;19.20;98.40;;;;;;5017446;28;20094;-80
2023/06/11 06:31:41;;;;;;;8.25;4.75;;;19.30;98.10;;;;;;5017177;28;20463;-80
2023/06/11 06:34:08;;;;;;;8.85;4.82;;;19.90;98.00;;;;;;5033888;28;20107;-80
2023/06/11 06:36:35;;;;;;;12.07;5.43;;;21.00;96.80;;;;;;5033545;28;20040;-80
2023/06/11 06:39:01;;;;;;;8.73;4.93;;;22.30;94.90;;;;;;5033142;28;20049;-80
2023/06/11 06:41:27;;;;;;;7.00;4.88;;;23.40;93.10;;;;;;5033221;28;20425;-80
2023/06/11 06:43:53;;;;;;;7.85;4.85;;;24.30;91.50;;;;;;5016985;28;20041;-80
2023/06/11 06:46:19;;;;;;;8.32;5.38;;;25.10;90.10;;;;;;5033524;28;20041;-81
2023/06/11 06:48:44;;;;;;;9.32;5.15;;;25.80;87.20;;;;;;5033395;28;20455;-80
2023/06/11 06:51:10;;;;;;;8.05;4.80;;;26.20;84.60;;;;;;5017102;28;20103;-80
2023/06/11 06:53:36;;;;;;;8.05;4.72;;;25.80;84.50;;;;;;5033008;28;20406;-80
2023/06/11 06:56:02;;;;;;;6.55;4.32;;;25.30;85.90;;;;;;5033240;28;20220;-80
2023/06/11 06:58:27;;;;;;;7.95;4.55;;;24.80;88.10;;;;;;5033038;28;20159;-81
2023/06/11 07:00:54;;;;;;;7.65;4.90;;;24.40;90.00;;;;;;5033167;28;20102;-80
2023/06/11 07:03:20;;;;;;;7.05;4.40;;;24.00;90.60;;;;;;5016655;28;20120;-81
2023/06/11 07:05:46;;;;;;;7.22;5.25;;;23.60;90.90;;;;;;5033066;28;20107;-81
2023/06/11 07:08:13;;;;;;;8.98;4.90;;;23.30;91.60;;;;;;5033276;28;20041;-81
2023/06/11 07:10:47;;;;;;;8.60;5.10;;;23.00;91.50;;;;;;5032815;28;20076;-80
2023/06/11 07:13:13;;;;;;;7.45;5.00;;;22.80;91.70;;;;;;5016881;28;20079;-80
2023/06/11 07:15:39;;;;;;;7.32;4.78;;;22.60;92.00;;;;;;5017003;28;20451;-81
2023/06/11 07:18:04;;;;;;;7.25;4.78;;;22.60;92.40;;;;;;5032750;28;20040;-81
2023/06/11 07:20:30;;;;;;;7.07;4.30;;;22.40;92.50;;;;;;5032463;28;20036;-80
2023/06/11 07:22:55;;;;;;;8.23;4.55;;;22.30;92.50;;;;;;5015743;28;20041;-80
2023/06/11 07:25:21;;;;;;;8.70;5.13;;;22.30;92.70;;;;;;5032608;28;20092;-80
2023/06/11 07:27:47;;;;;;;7.70;4.40;;;22.20;92.70;;;;;;5032930;28;20049;-81
2023/06/11 07:30:13;;;;;;;7.88;4.85;;;22.10;92.70;;;;;;5032588;28;20090;-81
2023/06/11 07:32:38;;;;;;;6.18;4.28;;;22.10;92.90;;;;;;5032786;28;20119;-80
2023/06/11 07:35:04;;;;;;;7.43;4.65;;;22.10;92.90;;;;;;5032809;28;20132;-80
2023/06/11 07:37:31;;;;;;;6.25;4.65;;;22.10;92.80;;;;;;5032364;28;20045;-80
2023/06/11 07:39:57;;;;;;;7.72;4.43;;;22.10;92.80;;;;;;5032620;28;20036;-80
2023/06/11 07:42:23;;;;;;;6.75;4.38;;;22.10;92.90;;;;;;5015849;28;20339;-81
2023/06/11 07:44:49;;;;;;;7.55;4.97;;;22.10;92.80;;;;;;5016308;28;20051;-81
2023/06/11 07:47:14;;;;;;;6.93;4.32;;;22.10;92.80;;;;;;5032790;28;20040;-81
2023/06/11 07:49:40;;;;;;;6.13;4.68;;;22.10;92.90;;;;;;5032766;28;20119;-81
2023/06/11 07:52:06;;;;;;;7.95;5.10;;;22.10;92.90;;;;;;5015790;28;20547;-81
2023/06/11 07:54:32;;;;;;;7.78;5.07;;;22.10;92.90;;;;;;5032616;28;20509;-81
2023/06/11 07:56:58;;;;;;;6.95;4.53;;;22.10;92.80;;;;;;5032399;28;20080;-81
2023/06/11 07:59:24;;;;;;;7.78;4.28;;;22.10;92.80;;;;;;5016275;28;20128;-81
2023/06/11 08:01:49;;;;;;;6.53;4.43;;;22.10;92.70;;;;;;5032412;28;20051;-81
2023/06/11 08:04:15;;;;;;;7.57;4.53;;;22.10;92.70;;;;;;5016005;28;20624;-80
2023/06/11 08:06:43;;;;;;;7.90;4.50;;;22.10;92.70;;;;;;5032597;28;20040;-80
2023/06/11 08:09:09;;;;;;;6.10;4.18;;;22.30;92.70;;;;;;5015704;28;20037;-80
2023/06/11 08:11:34;;;;;;;8.95;4.80;;;22.20;92.60;;;;;;5032097;28;20053;-81
2023/06/11 08:14:00;;;;;;;7.05;4.32;;;22.20;92.50;;;;;;5032296;28;20091;-81
2023/06/11 08:16:26;;;;;;;7.80;4.90;;;22.30;92.60;;;;;;5032245;28;20048;-81
2023/06/11 08:18:51;;;;;;;6.18;4.00;;;22.40;92.60;;;;;;5015991;28;20033;-81
2023/06/11 08:21:17;;;;;;;7.57;4.85;;;22.40;92.60;;;;;;5031749;28;20072;-81
2023/06/11 08:23:42;;;;;;;5.93;3.97;;;22.40;92.60;;;;;;5015689;28;20130;-81
2023/06/11 08:26:09;;;;;;;6.82;4.25;;;22.40;92.50;;;;;;5015888;28;20048;-81
2023/06/11 08:28:35;;;;;;;5.95;4.28;;;22.50;92.40;;;;;;5032333;28;20080;-81
2023/06/11 08:31:01;;;;;;;8.02;4.10;;;22.50;92.20;;;;;;5031821;28;20076;-81
2023/06/11 08:33:27;;;;;;;6.28;4.20;;;22.50;92.30;;;;;;5034908;28;20080;-81
2023/06/11 08:35:53;;;;;;;5.07;4.35;;;22.60;92.30;;;;;;5036114;28;20048;-81
2023/06/11 08:38:18;;;;;;;5.93;4.03;;;22.60;92.30;;;;;;5019175;28;20405;-81
2023/06/11 08:40:44;;;;;;;6.88;3.88;;;22.70;92.30;;;;;;5019553;28;20395;-81
2023/06/11 08:43:10;;;;;;;6.43;4.40;;;22.70;92.20;;;;;;5035518;28;20045;-81
2023/06/11 08:45:37;;;;;;;5.43;4.00;;;22.70;92.20;;;;;;5019323;28;20124;-81
2023/06/11 08:48:04;;;;;;;7.72;4.30;;;22.90;92.50;;;;;;5018940;28;20044;-81
2023/06/11 08:50:33;;;;;;;5.97;4.30;;;22.90;92.40;;;;;;5019009;28;20064;-81
2023/06/11 08:53:01;;;;;;;8.30;4.70;;;22.90;92.30;;;;;;5035599;28;20082;-81
2023/06/11 08:55:30;;;;;;;6.00;4.22;;;22.90;92.40;;;;;;5019222;28;20079;-81
2023/06/11 08:57:56;;;;;;;5.53;3.97;;;22.90;92.30;;;;;;5019264;28;20398;-81
2023/06/11 09:00:22;;;;;;;7.18;4.25;;;23.00;92.20;;;;;;5035339;28;20040;-81
2023/06/11 09:02:48;;;;;;;5.72;4.15;;;23.10;92.10;;;;;;5034962;28;20437;-81
2023/06/11 09:05:14;;;;;;;6.57;4.40;;;23.00;92.00;;;;;;5018885;28;20479;-81
2023/06/11 09:07:53;;;;;;;7.07;4.13;;;23.10;92.30;;;;;;5035317;28;20037;-81
2023/06/11 09:10:19;;;;;;;5.95;4.30;;;23.10;91.80;;;;;;5035109;28;20493;-81
2023/06/11 09:12:45;;;;;;;5.82;4.53;;;23.10;92.10;;;;;;5035385;28;20037;-81
2023/06/11 09:15:12;;;;;;;5.88;4.38;;;23.20;91.50;;;;;;5018743;28;20565;-81
2023/06/11 09:17:43;;;;;;;6.93;4.40;;;23.20;91.50;;;;;;5018475;28;20221;-81
2023/06/11 09:20:15;;;;;;;5.85;4.05;;;23.30;91.10;;;;;;5035233;28;20120;-81
2023/06/11 09:22:42;;;;;;;6.97;4.35;;;23.30;90.80;;;;;;5018563;28;20088;-81
2023/06/11 09:25:10;;;;;;;7.35;4.60;;;23.40;90.90;;;;;;5031507;28;20064;-81
2023/06/11 09:27:39;;;;;;;6.10;4.00;;;23.40;91.10;;;;;;5014990;28;20045;-81
2023/06/11 09:30:12;;;;;;;5.80;4.20;;;23.50;91.00;;;;;;5031750;28;20482;-81
2023/06/11 09:32:42;;;;;;;7.72;3.97;;;23.50;90.70;;;;;;5015119;28;20687;-81
2023/06/11 09:35:09;;;;;;;6.35;3.88;;;23.70;90.50;;;;;;5031512;28;20529;-80
2023/06/11 09:37:51;;;;;;;5.63;4.00;;;23.60;90.30;;;;;;5015205;28;20045;-81
2023/06/11 09:40:19;;;;;;;5.32;4.05;;;23.70;90.20;;;;;;5031440;28;20046;-81
2023/06/11 09:42:46;;;;;;;5.13;4.03;;;23.60;90.30;;;;;;5031417;28;20503;-81
2023/06/11 09:45:13;;;;;;;7.70;4.07;;;23.70;90.20;;;;;;5030876;28;20446;-81
2023/06/11 09:47:39;;;;;;;6.28;3.80;;;23.70;90.30;;;;;;5031781;28;20080;-81
2023/06/11 09:50:06;;;;;;;7.60;3.92;;;23.70;90.10;;;;;;5015033;28;20502;-81
2023/06/11 09:52:34;;;;;;;6.00;3.92;;;23.80;89.40;;;;;;5031374;28;20084;-81
2023/06/11 09:55:00;;;;;;;7.30;4.28;;;23.80;89.60;;;;;;5031565;28;20041;-81
2023/06/11 09:57:28;;;;;;;8.27;4.15;;;23.90;89.20;;;;;;5014527;28;20045;-81
2023/06/11 09:59:55;;;;;;;5.43;4.15;;;24.00;88.50;;;;;;5030940;28;20226;-81
2023/06/11 10:02:20;;;;;;;7.65;4.70;;;24.00;88.10;;;;;;5014278;28;20077;-81
2023/06/11 10:04:46;;;;;;;6.13;3.67;;;24.00;88.50;;;;;;5031023;28;20126;-81
2023/06/11 10:07:12;;;;;;;6.90;4.28;;;24.10;88.50;;;;;;5031273;28;20403;-81
2023/06/11 10:09:40;;;;;;;6.47;3.88;;;24.10;87.40;;;;;;5030530;28;20091;-81
2023/06/11 10:12:06;;;;;;;8.05;4.78;;;24.10;87.50;;;;;;5014489;28;20511;-81
2023/06/11 10:14:32;;;;;;;5.95;3.80;;;24.10;87.30;;;;;;5014149;28;20073;-81
2023/06/11 10:17:02;;;;;;;5.82;4.13;;;24.10;86.80;;;;;;5030885;28;20451;-81
2023/06/11 10:19:36;;;;;;;6.65;4.32;;;24.10;86.30;;;;;;5013981;28;20048;-81
2023/06/11 10:22:02;;;;;;;6.22;3.90;;;24.20;85.80;;;;;;5014007;28;20095;-81
2023/06/11 10:24:28;;;;;;;8.07;4.18;;;24.20;86.30;;;;;;5030477;28;20076;-81
2023/06/11 10:27:07;;;;;;;8.00;4.05;;;24.20;85.40;;;;;;5014057;28;20033;-81
2023/06/11 10:29:46;;;;;;;7.03;3.88;;;24.20;85.20;;;;;;5014132;28;20482;-80
2023/06/11 10:32:19;;;;;;;8.90;4.70;;;24.20;85.70;;;;;;5030500;28;20045;-81
2023/06/11 10:34:47;;;;;;;6.22;4.03;;;24.30;85.80;;;;;;5014132;28;20041;-81
2023/06/11 10:37:13;;;;;;;5.97;3.75;;;24.40;85.30;;;;;;5030785;28;20400;-81
2023/06/11 10:39:51;;;;;;;5.57;3.38;;;24.50;85.00;;;;;;5013723;28;20056;-81
2023/06/11 10:42:25;;;;;;;6.57;4.35;;;24.50;84.20;;;;;;5013626;28;20049;-80
2023/06/11 10:44:55;;;;;;;4.90;3.45;;;24.60;84.20;;;;;;5013628;28;20052;-80
2023/06/11 10:47:21;;;;;;;9.23;4.30;;;24.60;83.70;;;;;;5030151;28;20048;-81
2023/06/11 10:49:47;;;;;;;5.40;3.80;;;24.70;83.10;;;;;;5029992;28;20037;-81
2023/06/11 10:52:13;;;;;;;7.15;3.53;;;24.70;81.10;;;;;;5013834;28;20033;-81
2023/06/11 10:54:45;;;;;;;6.00;3.65;;;24.70;80.50;;;;;;5029802;28;20045;-80
2023/06/11 10:57:14;;;;;;;5.25;3.35;;;24.70;80.10;;;;;;5013323;28;20045;-81
2023/06/11 10:59:40;;;;;;;5.32;3.35;;;24.80;80.00;;;;;;5013084;28;20491;-81
2023/06/11 11:02:11;;;;;;;5.18;3.20;;;24.80;79.30;;;;;;5029679;28;20574;-81
2023/06/11 11:04:51;;;;;;;5.10;3.78;;;24.90;77.80;;;;;;5029854;28;20235;-81
2023/06/11 11:07:18;;;;;;;4.72;3.28;;;24.90;75.00;;;;;;5029765;28;20121;-81
2023/06/11 11:09:44;;;;;;;5.03;3.13;;;24.90;75.90;;;;;;5013883;28;20044;-81
2023/06/11 11:12:11;;;;;;;4.65;3.30;;;25.00;75.00;;;;;;5013084;28;20080;-81
2023/06/11 11:14:37;;;;;;;4.85;3.28;;;25.00;73.90;;;;;;5013136;28;20080;-81
2023/06/11 11:17:03;;;;;;;5.28;3.45;;;25.00;72.80;;;;;;5013523;28;20072;-81
2023/06/11 11:19:30;;;;;;;4.15;3.10;;;25.00;71.80;;;;;;5029504;28;20088;-81
2023/06/11 11:21:55;;;;;;;5.03;3.38;;;25.10;71.30;;;;;;5029744;28;20565;-81
2023/06/11 11:24:21;;;;;;;4.55;3.30;;;25.10;71.00;;;;;;5029024;28;20057;-81
2023/06/11 11:26:47;;;;;;;4.97;3.28;;;25.20;70.10;;;;;;5029403;28;20037;-81
2023/06/11 11:29:13;;;;;;;5.25;3.28;;;25.30;69.70;;;;;;5029889;28;20033;-81
2023/06/11 11:31:40;;;;;;;4.68;3.50;;;25.30;69.00;;;;;;5013073;28;20042;-81
2023/06/11 11:34:06;;;;;;;5.90;3.42;;;25.40;67.20;;;;;;5013137;28;20475;-81
2023/06/11 11:36:31;;;;;;;3.97;2.88;;;25.40;66.70;;;;;;5029272;28;20041;-81
2023/06/11 11:39:08;;;;;;;5.43;3.53;;;25.40;65.50;;;;;;5029362;28;20045;-80
2023/06/11 11:41:52;;;;;;;4.97;3.08;;;25.50;64.90;;;;;;5029297;28;20084;-81
2023/06/11 11:44:19;;;;;;;5.13;3.20;;;25.60;63.70;;;;;;5012765;28;20083;-81
2023/06/11 11:46:46;;;;;;;4.28;3.17;;;25.70;64.20;;;;;;5012915;28;20556;-81
2023/06/11 11:49:13;;;;;;;4.90;3.35;;;25.80;63.20;;;;;;5029763;28;20128;-81
2023/06/11 11:51:40;;;;;;;4.07;2.97;;;25.90;62.70;;;;;;5012589;28;20642;-81
2023/06/11 11:54:07;;;;;;;4.97;3.20;;;25.90;62.10;;;;;;5029228;28;20056;-81
2023/06/11 11:56:33;;;;;;;6.03;3.38;;;26.00;61.50;;;;;;5012981;28;20103;-81
2023/06/11 11:58:59;;;;;;;5.25;3.38;;;26.00;61.30;;;;;;5012852;28;20057;-81
2023/06/11 12:01:30;;;;;;;7.05;3.42;;;26.00;60.40;;;;;;5029009;28;20045;-80
2023/06/11 12:04:03;;;;;;;4.78;2.97;;;26.00;60.40;;;;;;5028955;28;20052;-81
2023/06/11 12:06:30;;;;;;;5.93;3.30;;;26.00;59.10;;;;;;5012753;28;20439;-81
2023/06/11 12:08:55;;;;;;;6.65;3.22;;;26.00;59.70;;;;;;5016264;28;20041;-81
2023/06/11 12:11:22;;;;;;;5.07;3.20;;;26.00;59.30;;;;;;5033255;28;20040;-81
2023/06/11 12:13:47;;;;;;;3.97;3.17;;;25.90;59.10;;;;;;5032920;28;20049;-81
2023/06/11 12:16:14;;;;;;;5.65;3.45;;;25.90;58.90;;;;;;5033455;28;20063;-81
2023/06/11 12:18:40;;;;;;;5.97;3.33;;;26.00;58.30;;;;;;5032716;28;20052;-81
2023/06/11 12:21:07;;;;;;;5.63;3.20;;;26.10;58.20;;;;;;5032881;28;20045;-81
2023/06/11 12:23:32;;;;;;;5.10;3.67;;;26.10;58.20;;;;;;5032616;28;20120;-81
2023/06/11 12:26:00;;;;;;;5.65;3.35;;;26.20;58.10;;;;;;5036008;28;20129;-81
2023/06/11 12:28:25;;;;;;;4.38;3.15;;;26.30;58.20;;;;;;5019480;28;20494;-81
2023/06/11 12:30:51;;;;;;;6.22;3.20;;;26.30;58.10;;;;;;5036004;28;20103;-81
2023/06/11 12:33:17;;;;;;;4.82;3.17;;;26.30;57.90;;;;;;5019438;28;20090;-81
2023/06/11 12:35:44;;;;;;;4.97;3.15;;;26.40;57.40;;;;;;5035949;28;20036;-81
2023/06/11 12:38:10;;;;;;;7.20;3.30;;;26.40;56.90;;;;;;5019757;28;20143;-81
2023/06/11 12:40:37;;;;;;;5.88;3.55;;;26.30;56.50;;;;;;5019285;28;20567;-81
2023/06/11 12:43:03;;;;;;;4.78;3.42;;;26.30;56.30;;;;;;5019294;28;20041;-81
2023/06/11 12:45:30;;;;;;;5.32;3.47;;;26.20;56.10;;;;;;5019365;28;20041;-81